X  Fermer Données météorologiques d'aviation de Metar     LGRX Patras Araxos Agamemnon Airport
Température
59°F Température
52°F Point de rosée
77% Humidité



Vent
5 MPH
8 KM/H
2 M/S
4 KTS



60°
ENE
Conditions actuelles

Plutôt nuageux Plutôt nuageux
Pression 1021.92 (hPa) - 30.18 (inHg)
Visibilité 6.2 (mile) - 10 (km)
Aéroport
Code de l'aéroport LGRX

Emplacement: Patras Araxos Agamemnon Airport
Distance: 108 (mi)

Metar:
LGRX 041720Z 06004KT 9999 BKN050 15/11 Q1022

Temps: 04-12-2022 19:20 EET